Time;durP1;ratioP1;P1;durP2;ratioP2;P2;SDS_P1;SDS_P2;PMS_P1;PMS_P2;Temp;Humidity;BMP_temperature;BMP_pressure;BME280_temperature;BME280_humidity;BME280_pressure;Samples;Min_cycle;Max_cycle;Signal;HPM_P1;HPM_P2
2021/06/04 00:02:22;;;;;;;5.50;4.82;;;;;;;;;;5010998;28;20062;-74
2021/06/04 00:04:48;;;;;;;5.63;4.55;;;;;;;;;;4977817;28;20496;-74
2021/06/04 00:07:13;;;;;;;6.25;5.03;;;;;;;;;;4994174;28;20022;-74
2021/06/04 00:09:38;;;;;;;6.30;5.60;;;;;;;;;;5010668;28;20041;-74
2021/06/04 00:12:09;;;;;;;5.95;4.43;;;;;;;;;;4995011;28;20030;-74
2021/06/04 00:14:39;;;;;;;5.70;5.10;;;;;;;;;;4995391;28;20118;-74
2021/06/04 00:17:08;;;;;;;7.90;5.32;;;;;;;;;;4978278;28;20034;-74
2021/06/04 00:19:34;;;;;;;5.20;4.70;;;;;;;;;;4994085;28;20034;-74
2021/06/04 00:22:03;;;;;;;6.22;4.90;;;;;;;;;;4978312;28;20041;-74
2021/06/04 00:24:29;;;;;;;6.30;5.00;;;;;;;;;;4997526;28;20380;-74
2021/06/04 00:26:55;;;;;;;6.63;5.20;;;;;;;;;;4998435;28;20030;-75
2021/06/04 00:29:20;;;;;;;7.45;5.90;;;;;;;;;;5006703;28;20036;-74
2021/06/04 00:31:47;;;;;;;6.80;5.00;;;;;;;;;;5029877;28;20048;-74
2021/06/04 00:34:14;;;;;;;6.03;4.57;;;;;;;;;;5017399;28;20053;-74
2021/06/04 00:36:40;;;;;;;6.53;5.82;;;;;;;;;;5017724;28;20140;-74
2021/06/04 00:39:06;;;;;;;5.70;4.88;;;;;;;;;;5001731;28;20498;-74
2021/06/04 00:41:38;;;;;;;7.18;5.68;;;;;;;;;;5001398;28;20029;-74
2021/06/04 00:44:04;;;;;;;5.90;5.20;;;;;;;;;;5014432;28;20037;-74
2021/06/04 00:46:30;;;;;;;6.07;5.30;;;;;;;;;;4997827;28;20373;-74
2021/06/04 00:48:55;;;;;;;7.57;5.47;;;;;;;;;;5021737;28;20038;-74
2021/06/04 00:51:26;;;;;;;6.50;5.05;;;;;;;;;;5017497;28;20026;-74
2021/06/04 00:53:52;;;;;;;8.25;6.10;;;;;;;;;;5035123;28;20072;-74
2021/06/04 00:56:18;;;;;;;8.20;5.50;;;;;;;;;;5017404;28;20028;-74
2021/06/04 00:58:45;;;;;;;5.75;5.05;;;;;;;;;;5017694;28;20037;-74
2021/06/04 01:01:11;;;;;;;7.43;4.95;;;;;;;;;;4997393;28;20036;-74
2021/06/04 01:03:39;;;;;;;6.65;5.00;;;;;;;;;;4997216;28;20072;-74
2021/06/04 01:06:07;;;;;;;8.32;5.00;;;;;;;;;;4997472;28;20033;-74
2021/06/04 01:09:03;;;;;;;7.20;5.47;;;;;;;;;;5030312;28;20064;-74
2021/06/04 01:12:10;;;;;;;7.88;5.57;;;;;;;;;;5014148;28;20109;-74
2021/06/04 01:14:44;;;;;;;6.35;5.43;;;;;;;;;;5008165;28;20045;-74
2021/06/04 01:17:33;;;;;;;5.88;4.80;;;;;;;;;;5013770;28;20546;-74
2021/06/04 01:20:16;;;;;;;7.00;5.20;;;;;;;;;;5014722;28;20468;-74
2021/06/04 01:22:50;;;;;;;7.00;4.88;;;;;;;;;;4998070;28;20052;-74
2021/06/04 01:25:22;;;;;;;5.90;4.82;;;;;;;;;;5030210;28;20121;-74
2021/06/04 01:27:48;;;;;;;6.10;5.50;;;;;;;;;;5014621;28;20034;-75
2021/06/04 01:30:25;;;;;;;7.60;5.78;;;;;;;;;;5036204;28;20434;-74
2021/06/04 01:32:51;;;;;;;6.53;4.57;;;;;;;;;;5036379;28;20033;-74
2021/06/04 01:35:24;;;;;;;6.97;4.97;;;;;;;;;;5016054;28;20030;-74
2021/06/04 01:37:50;;;;;;;8.18;5.30;;;;;;;;;;5016881;28;20547;-74
2021/06/04 01:40:33;;;;;;;6.10;4.75;;;;;;;;;;5033710;28;20025;-74
2021/06/04 01:43:02;;;;;;;5.22;4.53;;;;;;;;;;5033107;28;20116;-74
2021/06/04 01:45:33;;;;;;;5.32;4.70;;;;;;;;;;5032733;28;20033;-74
2021/06/04 01:48:01;;;;;;;8.17;4.50;;;;;;;;;;5016274;28;20082;-74
2021/06/04 01:50:32;;;;;;;5.57;4.43;;;;;;;;;;4996726;28;20033;-74
2021/06/04 01:53:00;;;;;;;5.60;4.63;;;;;;;;;;5013210;28;20030;-74
2021/06/04 01:55:33;;;;;;;5.60;4.35;;;;;;;;;;4996550;28;20049;-74
2021/06/04 01:58:02;;;;;;;5.00;4.50;;;;;;;;;;4981425;28;20037;-74
2021/06/04 02:00:34;;;;;;;6.35;4.65;;;;;;;;;;5012914;28;20042;-74
2021/06/04 02:02:59;;;;;;;4.80;4.03;;;;;;;;;;5012387;28;20141;-74
2021/06/04 02:05:29;;;;;;;4.85;3.80;;;;;;;;;;4996205;28;20033;-74
2021/06/04 02:07:54;;;;;;;4.70;4.20;;;;;;;;;;4996459;28;20852;-74
2021/06/04 02:10:31;;;;;;;5.35;4.20;;;;;;;;;;4996616;28;20092;-74
2021/06/04 02:12:56;;;;;;;5.00;4.50;;;;;;;;;;4996913;28;20026;-74
2021/06/04 02:15:25;;;;;;;7.90;4.20;;;;;;;;;;5009521;28;20037;-74
2021/06/04 02:18:15;;;;;;;5.13;4.15;;;;;;;;;;5016139;28;20034;-74
2021/06/04 02:20:54;;;;;;;4.63;3.60;;;;;;;;;;5033119;28;20041;-74
2021/06/04 02:23:27;;;;;;;6.03;4.18;;;;;;;;;;5015002;28;20035;-74
2021/06/04 02:26:14;;;;;;;4.85;3.65;;;;;;;;;;5032132;28;20044;-74
2021/06/04 02:28:49;;;;;;;5.65;3.92;;;;;;;;;;5039318;28;20029;-74
2021/06/04 02:31:14;;;;;;;5.88;4.15;;;;;;;;;;5048561;28;20033;-74
2021/06/04 02:33:46;;;;;;;4.55;3.85;;;;;;;;;;5031407;28;20084;-74
2021/06/04 02:36:15;;;;;;;4.60;3.75;;;;;;;;;;4999709;28;20041;-74
2021/06/04 02:38:47;;;;;;;5.03;3.95;;;;;;;;;;4999641;28;20121;-74
2021/06/04 02:41:39;;;;;;;5.57;3.72;;;;;;;;;;5015674;28;20079;-74
2021/06/04 02:44:11;;;;;;;5.45;4.00;;;;;;;;;;5031875;28;20038;-74
2021/06/04 02:46:42;;;;;;;4.90;3.97;;;;;;;;;;5014767;28;20546;-74
2021/06/04 02:49:09;;;;;;;4.20;3.50;;;;;;;;;;5006391;28;20538;-74
2021/06/04 02:51:43;;;;;;;5.05;2.97;;;;;;;;;;5011779;28;20075;-74
2021/06/04 02:54:11;;;;;;;3.50;3.00;;;;;;;;;;5011741;28;20025;-74
2021/06/04 02:56:44;;;;;;;4.70;3.42;;;;;;;;;;5011770;28;20049;-74
2021/06/04 02:59:32;;;;;;;3.78;2.90;;;;;;;;;;4979006;28;20025;-74
2021/06/04 03:02:06;;;;;;;4.78;3.47;;;;;;;;;;5006659;28;20026;-74
2021/06/04 03:04:33;;;;;;;4.13;3.20;;;;;;;;;;5015740;28;20594;-74
2021/06/04 03:07:03;;;;;;;5.97;3.55;;;;;;;;;;5014891;28;20283;-74
2021/06/04 03:09:34;;;;;;;4.50;3.80;;;;;;;;;;5015314;28;20561;-74
2021/06/04 03:12:02;;;;;;;4.22;3.17;;;;;;;;;;4998838;28;20026;-74
2021/06/04 03:14:28;;;;;;;4.53;3.40;;;;;;;;;;5014582;28;20037;-74
2021/06/04 03:16:54;;;;;;;5.78;3.83;;;;;;;;;;5031355;28;20034;-74
2021/06/04 03:19:20;;;;;;;3.45;3.15;;;;;;;;;;4998400;28;20060;-74
2021/06/04 03:21:52;;;;;;;4.90;3.97;;;;;;;;;;5014584;28;20022;-74
2021/06/04 03:24:27;;;;;;;4.05;3.30;;;;;;;;;;5014585;28;20061;-74
2021/06/04 03:26:52;;;;;;;5.20;3.40;;;;;;;;;;5015634;28;20095;-74
2021/06/04 03:29:18;;;;;;;4.57;3.30;;;;;;;;;;5026160;28;20450;-74
2021/06/04 03:31:47;;;;;;;4.55;3.65;;;;;;;;;;5043233;28;20518;-74
2021/06/04 03:34:13;;;;;;;5.15;4.10;;;;;;;;;;5030932;28;20052;-74
2021/06/04 03:36:40;;;;;;;3.97;3.55;;;;;;;;;;5014349;28;20022;-74
2021/06/04 03:39:11;;;;;;;5.40;3.88;;;;;;;;;;5014660;28;20044;-74
2021/06/04 03:41:38;;;;;;;6.23;4.20;;;;;;;;;;5014224;28;20025;-74
2021/06/04 03:44:04;;;;;;;4.78;3.92;;;;;;;;;;5014133;28;20056;-74
2021/06/04 03:46:30;;;;;;;6.03;4.45;;;;;;;;;;5014507;28;20112;-74
2021/06/04 03:48:55;;;;;;;5.32;4.45;;;;;;;;;;5030517;28;20040;-74
2021/06/04 03:51:24;;;;;;;5.28;4.32;;;;;;;;;;5014337;28;20033;-74
2021/06/04 03:53:49;;;;;;;5.43;4.45;;;;;;;;;;5013968;28;20037;-74
2021/06/04 03:56:15;;;;;;;5.13;4.43;;;;;;;;;;4998144;28;20045;-74
2021/06/04 03:58:44;;;;;;;4.88;4.18;;;;;;;;;;5013953;28;20030;-74
2021/06/04 04:01:13;;;;;;;5.80;4.15;;;;;;;;;;4994073;28;20037;-74
2021/06/04 04:03:39;;;;;;;5.47;4.38;;;;;;;;;;4994490;28;20045;-74
2021/06/04 04:06:04;;;;;;;6.25;4.43;;;;;;;;;;4994310;28;20037;-74
2021/06/04 04:08:30;;;;;;;4.75;4.25;;;;;;;;;;4994036;28;20064;-74
2021/06/04 04:10:56;;;;;;;5.28;4.43;;;;;;;;;;4994346;28;20403;-74
2021/06/04 04:13:22;;;;;;;4.75;4.25;;;;;;;;;;4994188;28;20115;-74
2021/06/04 04:15:47;;;;;;;6.75;4.38;;;;;;;;;;4994201;28;20496;-74
2021/06/04 04:18:13;;;;;;;5.25;4.22;;;;;;;;;;4994587;28;20022;-73
2021/06/04 04:20:41;;;;;;;4.80;4.30;;;;;;;;;;4994229;28;20476;-74
2021/06/04 04:23:08;;;;;;;5.20;4.63;;;;;;;;;;5010225;28;20365;-74
2021/06/04 04:25:35;;;;;;;3.95;3.38;;;;;;;;;;4994215;28;20038;-74
2021/06/04 04:28:00;;;;;;;4.70;3.78;;;;;;;;;;4997139;28;20152;-74
2021/06/04 04:30:26;;;;;;;5.93;4.55;;;;;;;;;;5033522;28;20538;-74
2021/06/04 04:32:51;;;;;;;5.40;4.18;;;;;;;;;;5013960;28;20084;-74
2021/06/04 04:35:20;;;;;;;6.13;4.00;;;;;;;;;;4994004;28;20037;-73
2021/06/04 04:37:46;;;;;;;4.43;3.53;;;;;;;;;;4977995;28;20030;-74
2021/06/04 04:40:12;;;;;;;4.97;3.47;;;;;;;;;;5010465;28;20045;-74
2021/06/04 04:42:37;;;;;;;4.55;3.80;;;;;;;;;;4994236;28;20025;-74
2021/06/04 04:45:05;;;;;;;4.20;3.75;;;;;;;;;;5010383;28;20038;-74
2021/06/04 04:47:32;;;;;;;4.72;4.20;;;;;;;;;;4993916;28;20060;-73
2021/06/04 04:49:58;;;;;;;4.93;3.65;;;;;;;;;;5026455;28;20091;-74
2021/06/04 04:52:24;;;;;;;4.70;3.88;;;;;;;;;;5013898;28;20471;-74
2021/06/04 04:54:52;;;;;;;4.18;3.75;;;;;;;;;;4996771;28;20044;-74
2021/06/04 04:57:17;;;;;;;4.95;4.45;;;;;;;;;;5013802;28;20091;-74
2021/06/04 04:59:43;;;;;;;5.60;3.92;;;;;;;;;;5013610;28;20434;-74
2021/06/04 05:02:08;;;;;;;4.82;4.00;;;;;;;;;;5010143;28;20492;-74
2021/06/04 05:04:34;;;;;;;7.10;3.80;;;;;;;;;;4993709;28;20042;-74
2021/06/04 05:06:59;;;;;;;6.57;4.78;;;;;;;;;;4975439;28;20130;-74
2021/06/04 05:09:25;;;;;;;4.68;4.20;;;;;;;;;;4990722;28;20034;-74
2021/06/04 05:11:50;;;;;;;5.80;4.32;;;;;;;;;;5013016;28;20037;-74
2021/06/04 05:14:16;;;;;;;5.88;4.63;;;;;;;;;;5033633;28;20108;-74
2021/06/04 05:16:41;;;;;;;6.25;4.63;;;;;;;;;;5000856;28;20029;-74
2021/06/04 05:19:08;;;;;;;6.28;4.82;;;;;;;;;;5017230;28;20487;-74
2021/06/04 05:21:34;;;;;;;6.65;4.57;;;;;;;;;;5016732;28;20044;-74
2021/06/04 05:24:00;;;;;;;7.60;5.90;;;;;;;;;;4997979;28;20097;-74
2021/06/04 05:26:26;;;;;;;7.70;5.55;;;;;;;;;;5014256;28;20042;-74
2021/06/04 05:28:51;;;;;;;10.13;6.10;;;;;;;;;;5007322;28;20032;-74
2021/06/04 05:31:18;;;;;;;9.15;5.38;;;;;;;;;;5033456;28;20039;-74
2021/06/04 05:33:45;;;;;;;5.07;4.43;;;;;;;;;;5032538;28;20135;-74
2021/06/04 05:36:31;;;;;;;5.70;4.43;;;;;;;;;;5016355;28;20091;-74
2021/06/04 05:38:57;;;;;;;5.38;4.00;;;;;;;;;;5017747;28;20061;-74
2021/06/04 05:41:24;;;;;;;4.88;4.30;;;;;;;;;;5000412;28;20517;-74
2021/06/04 05:43:50;;;;;;;5.25;4.15;;;;;;;;;;5016808;28;20029;-74
2021/06/04 05:46:16;;;;;;;5.65;4.63;;;;;;;;;;5032778;28;20088;-74
2021/06/04 05:48:42;;;;;;;7.38;4.85;;;;;;;;;;5016709;28;20100;-74
2021/06/04 05:51:16;;;;;;;5.38;4.88;;;;;;;;;;5016275;28;20108;-74
2021/06/04 05:53:41;;;;;;;6.70;5.20;;;;;;;;;;5016039;28;20037;-74
2021/06/04 05:56:09;;;;;;;5.63;4.30;;;;;;;;;;5016104;28;20075;-74
2021/06/04 05:58:35;;;;;;;5.45;4.07;;;;;;;;;;5000460;28;20064;-73
2021/06/04 06:01:04;;;;;;;5.13;3.50;;;;;;;;;;5012638;28;20094;-74
2021/06/04 06:03:31;;;;;;;7.15;3.83;;;;;;;;;;4996256;28;20091;-73
2021/06/04 06:05:56;;;;;;;5.60;3.47;;;;;;;;;;4996744;28;20029;-73
2021/06/04 06:08:22;;;;;;;4.13;3.40;;;;;;;;;;4995758;28;20029;-74
2021/06/04 06:10:47;;;;;;;5.03;3.83;;;;;;;;;;4996092;28;20480;-74
2021/06/04 06:13:13;;;;;;;4.15;3.42;;;;;;;;;;4996370;28;20037;-74
2021/06/04 06:15:38;;;;;;;5.78;3.83;;;;;;;;;;4996116;28;20076;-74
2021/06/04 06:18:04;;;;;;;5.10;3.60;;;;;;;;;;4979777;28;20034;-74
2021/06/04 06:20:31;;;;;;;4.55;3.13;;;;;;;;;;4996313;28;20033;-74
2021/06/04 06:22:57;;;;;;;3.95;3.25;;;;;;;;;;5011790;28;20518;-74
2021/06/04 06:25:28;;;;;;;5.63;3.17;;;;;;;;;;4996342;28;20034;-74
2021/06/04 06:27:54;;;;;;;5.90;3.63;;;;;;;;;;4981264;28;20030;-74
2021/06/04 06:30:21;;;;;;;4.32;3.38;;;;;;;;;;5019296;28;20043;-74
2021/06/04 06:32:47;;;;;;;3.75;3.15;;;;;;;;;;5019796;28;20040;-73
2021/06/04 06:35:13;;;;;;;5.45;3.17;;;;;;;;;;5015672;28;20029;-73
2021/06/04 06:37:38;;;;;;;3.75;3.20;;;;;;;;;;4999270;28;20028;-73
2021/06/04 06:40:06;;;;;;;3.90;2.97;;;;;;;;;;4999077;28;20033;-74
2021/06/04 06:42:32;;;;;;;3.75;2.85;;;;;;;;;;5015458;28;20068;-74
2021/06/04 06:44:58;;;;;;;4.72;2.92;;;;;;;;;;4998943;28;20147;-74
2021/06/04 06:47:23;;;;;;;4.40;3.03;;;;;;;;;;5015103;28;20033;-74
2021/06/04 06:49:49;;;;;;;4.97;2.90;;;;;;;;;;4995684;28;20033;-74
2021/06/04 06:52:14;;;;;;;3.35;2.67;;;;;;;;;;5012499;28;20099;-73
2021/06/04 06:54:41;;;;;;;4.32;2.75;;;;;;;;;;5014877;28;20037;-74
2021/06/04 06:57:07;;;;;;;5.60;3.33;;;;;;;;;;5014651;28;20021;-74
2021/06/04 06:59:32;;;;;;;3.63;2.58;;;;;;;;;;5014391;28;20071;-74
2021/06/04 07:01:58;;;;;;;5.93;2.50;;;;;;;;;;5011333;28;20026;-74
2021/06/04 07:04:24;;;;;;;3.70;2.72;;;;;;;;;;5011787;28;20113;-74
2021/06/04 07:06:49;;;;;;;4.28;2.90;;;;;;;;;;4995245;28;20034;-74
2021/06/04 07:09:15;;;;;;;4.93;3.35;;;;;;;;;;4995369;28;20124;-74
2021/06/04 07:11:43;;;;;;;12.43;9.43;;;;;;;;;;4995402;28;20026;-74
2021/06/04 07:14:09;;;;;;;20.98;17.73;;;;;;;;;;4995286;28;20029;-74
2021/06/04 07:16:35;;;;;;;24.77;21.30;;;;;;;;;;5011262;28;20821;-74
2021/06/04 07:19:01;;;;;;;17.65;13.85;;;;;;;;;;4979107;28;20499;-74
2021/06/04 07:21:27;;;;;;;13.73;11.35;;;;;;;;;;4994742;28;20037;-74
2021/06/04 07:23:54;;;;;;;13.95;11.43;;;;;;;;;;4994618;28;20037;-74
2021/06/04 07:26:19;;;;;;;14.98;11.85;;;;;;;;;;4995047;28;20033;-74
2021/06/04 07:28:45;;;;;;;15.80;11.77;;;;;;;;;;5022277;28;20036;-74
2021/06/04 07:31:12;;;;;;;11.98;9.50;;;;;;;;;;5015572;28;20387;-74
2021/06/04 07:33:51;;;;;;;11.18;8.90;;;;;;;;;;5013444;28;20112;-74
2021/06/04 07:36:20;;;;;;;10.38;8.85;;;;;;;;;;5014800;28;20061;-74
2021/06/04 07:38:45;;;;;;;10.63;7.50;;;;;;;;;;4997486;28;20052;-74
2021/06/04 07:41:11;;;;;;;8.20;7.25;;;;;;;;;;5031084;28;20032;-74
2021/06/04 07:43:39;;;;;;;8.80;7.63;;;;;;;;;;5013738;28;20499;-74
2021/06/04 07:46:06;;;;;;;8.77;7.07;;;;;;;;;;5030521;28;20041;-74
2021/06/04 07:48:32;;;;;;;8.77;7.75;;;;;;;;;;5010029;28;20100;-74
2021/06/04 07:50:58;;;;;;;9.40;7.47;;;;;;;;;;4994660;28;20105;-74
2021/06/04 07:53:25;;;;;;;9.18;6.75;;;;;;;;;;4994103;28;20030;-74
2021/06/04 07:55:51;;;;;;;11.65;6.80;;;;;;;;;;4978283;28;20072;-75
2021/06/04 07:58:17;;;;;;;7.28;6.30;;;;;;;;;;4994707;28;20026;-74
2021/06/04 08:00:42;;;;;;;7.80;6.40;;;;;;;;;;5011473;28;20087;-75
2021/06/04 08:03:09;;;;;;;8.82;5.60;;;;;;;;;;5030573;28;20041;-75
2021/06/04 08:05:35;;;;;;;7.22;6.10;;;;;;;;;;5013447;28;20057;-74
2021/06/04 08:08:02;;;;;;;7.45;6.30;;;;;;;;;;5030303;28;20034;-74
2021/06/04 08:10:28;;;;;;;8.32;6.63;;;;;;;;;;5030363;28;20034;-74
2021/06/04 08:12:53;;;;;;;7.55;6.45;;;;;;;;;;5030523;28;20510;-74
2021/06/04 08:15:28;;;;;;;9.80;6.15;;;;;;;;;;5030106;28;20036;-74
2021/06/04 08:17:54;;;;;;;8.48;6.82;;;;;;;;;;4997747;28;20046;-74
2021/06/04 08:20:22;;;;;;;8.10;6.20;;;;;;;;;;5030414;28;20389;-74
2021/06/04 08:22:48;;;;;;;9.40;6.93;;;;;;;;;;4997802;28;20037;-74
2021/06/04 08:25:14;;;;;;;6.28;5.63;;;;;;;;;;5014004;28;20042;-74
2021/06/04 08:27:40;;;;;;;8.38;5.85;;;;;;;;;;5030412;28;20044;-74
2021/06/04 08:30:06;;;;;;;8.20;6.63;;;;;;;;;;5032347;28;20032;-74
2021/06/04 08:32:33;;;;;;;7.78;6.57;;;;;;;;;;5003802;28;20033;-74
2021/06/04 08:34:59;;;;;;;8.32;5.80;;;;;;;;;;5030436;28;20120;-75
2021/06/04 08:37:24;;;;;;;7.57;6.53;;;;;;;;;;5013897;28;20113;-75
2021/06/04 08:39:50;;;;;;;8.00;6.57;;;;;;;;;;4997387;28;20099;-75
2021/06/04 08:42:18;;;;;;;8.85;6.60;;;;;;;;;;5013702;28;20052;-75
2021/06/04 08:44:55;;;;;;;8.77;6.07;;;;;;;;;;5031749;28;20041;-74
2021/06/04 08:47:25;;;;;;;8.10;6.78;;;;;;;;;;5018058;28;20061;-75
2021/06/04 08:50:00;;;;;;;7.20;5.32;;;;;;;;;;5017451;28;20037;-74
2021/06/04 08:52:49;;;;;;;7.40;6.10;;;;;;;;;;5035355;28;20048;-75
2021/06/04 08:55:28;;;;;;;8.02;6.03;;;;;;;;;;5034042;28;20041;-75
2021/06/04 08:58:32;;;;;;;9.40;6.63;;;;;;;;;;5035178;28;20029;-75
2021/06/04 09:01:00;;;;;;;8.65;7.18;;;;;;;;;;5034606;28;20025;-75
2021/06/04 09:03:31;;;;;;;7.95;6.85;;;;;;;;;;5000501;28;20041;-74
2021/06/04 09:06:01;;;;;;;9.40;6.72;;;;;;;;;;5017748;28;20491;-75
2021/06/04 09:08:29;;;;;;;8.93;6.70;;;;;;;;;;5033654;28;20033;-76
2021/06/04 09:10:57;;;;;;;7.78;6.63;;;;;;;;;;5033825;28;20107;-74
2021/06/04 09:13:32;;;;;;;8.30;7.15;;;;;;;;;;5033909;28;20041;-75
2021/06/04 09:16:04;;;;;;;8.70;6.95;;;;;;;;;;5017422;28;20033;-75
2021/06/04 09:18:36;;;;;;;8.15;6.93;;;;;;;;;;5017490;28;20037;-75
2021/06/04 09:21:03;;;;;;;12.63;8.32;;;;;;;;;;5035316;28;20037;-75
2021/06/04 09:23:34;;;;;;;12.63;7.20;;;;;;;;;;5016522;28;20029;-75
2021/06/04 09:26:00;;;;;;;9.75;7.13;;;;;;;;;;5033902;28;20514;-75
2021/06/04 09:28:29;;;;;;;8.45;6.93;;;;;;;;;;5036674;28;20025;-75
2021/06/04 09:30:59;;;;;;;10.27;6.57;;;;;;;;;;5036014;28;20021;-75
2021/06/04 09:33:42;;;;;;;7.95;7.10;;;;;;;;;;5016256;28;20049;-75
2021/06/04 09:36:16;;;;;;;7.72;6.72;;;;;;;;;;5016765;28;20364;-75
2021/06/04 09:38:53;;;;;;;9.10;6.70;;;;;;;;;;5016853;28;20035;-74
2021/06/04 09:41:41;;;;;;;7.88;7.07;;;;;;;;;;5034287;28;20033;-75
2021/06/04 09:44:18;;;;;;;9.95;7.20;;;;;;;;;;5018225;28;20159;-75
2021/06/04 09:47:15;;;;;;;7.45;6.68;;;;;;;;;;5017723;28;20025;-75
2021/06/04 09:49:40;;;;;;;8.27;7.50;;;;;;;;;;4987897;28;20408;-75
2021/06/04 09:52:18;;;;;;;7.57;6.80;;;;;;;;;;5029633;28;20033;-75
2021/06/04 09:54:43;;;;;;;8.15;7.25;;;;;;;;;;5029066;28;20026;-75
2021/06/04 09:57:17;;;;;;;8.50;7.45;;;;;;;;;;4996225;28;20034;-75
2021/06/04 09:59:42;;;;;;;7.60;6.85;;;;;;;;;;5012524;28;20060;-75
2021/06/04 10:02:34;;;;;;;8.70;7.80;;;;;;;;;;4996824;28;20491;-75
2021/06/04 10:05:21;;;;;;;7.85;6.82;;;;;;;;;;5012855;28;20044;-75
2021/06/04 10:07:57;;;;;;;9.15;7.95;;;;;;;;;;5028969;28;20084;-75
2021/06/04 10:10:25;;;;;;;7.97;7.25;;;;;;;;;;5014390;28;20026;-75
2021/06/04 10:12:56;;;;;;;8.18;7.38;;;;;;;;;;5013129;28;20109;-75
2021/06/04 10:15:25;;;;;;;9.63;7.70;;;;;;;;;;5012318;28;20109;-74
2021/06/04 10:20:22;;;;;;;9.68;7.60;;;;;;;;;;4997215;28;20025;-75
2021/06/04 10:22:48;;;;;;;8.15;7.15;;;;;;;;;;5013635;28;20053;-75
2021/06/04 10:25:13;;;;;;;8.52;7.63;;;;;;;;;;4996282;28;20112;-75
2021/06/04 10:27:44;;;;;;;7.97;7.15;;;;;;;;;;5028622;28;20037;-75
2021/06/04 10:30:21;;;;;;;9.15;7.68;;;;;;;;;;5050088;28;20032;-74
2021/06/04 10:33:19;;;;;;;8.90;8.10;;;;;;;;;;5036108;28;20087;-74
2021/06/04 10:35:54;;;;;;;8.40;7.60;;;;;;;;;;5017677;28;20517;-74
2021/06/04 10:38:24;;;;;;;8.60;7.80;;;;;;;;;;5033168;28;20434;-74
2021/06/04 10:40:57;;;;;;;8.73;7.95;;;;;;;;;;5015903;28;20075;-74
2021/06/04 10:43:44;;;;;;;9.32;8.35;;;;;;;;;;5032081;28;20438;-75
2021/06/04 10:46:24;;;;;;;9.27;7.75;;;;;;;;;;5015654;28;20557;-74
2021/06/04 10:48:52;;;;;;;8.70;7.95;;;;;;;;;;5032823;28;20513;-74
2021/06/04 10:51:28;;;;;;;9.02;7.43;;;;;;;;;;5033244;28;20116;-75
2021/06/04 10:54:18;;;;;;;9.02;8.13;;;;;;;;;;5031256;28;20620;-74
2021/06/04 10:57:04;;;;;;;9.82;8.82;;;;;;;;;;5031998;28;20487;-74
2021/06/04 10:59:38;;;;;;;9.20;8.30;;;;;;;;;;5030630;28;20076;-74
2021/06/04 11:02:25;;;;;;;9.00;8.20;;;;;;;;;;5028258;28;20103;-74
2021/06/04 11:05:12;;;;;;;9.38;8.48;;;;;;;;;;5013497;28;20070;-74
2021/06/04 11:08:09;;;;;;;8.15;7.35;;;;;;;;;;5027056;28;20022;-75
2021/06/04 11:10:43;;;;;;;8.15;7.45;;;;;;;;;;5009995;28;20046;-74
2021/06/04 11:13:11;;;;;;;9.38;7.88;;;;;;;;;;4995468;28;20547;-74
2021/06/04 11:16:03;;;;;;;8.25;7.55;;;;;;;;;;4995258;28;20092;-74
2021/06/04 11:18:46;;;;;;;9.15;7.60;;;;;;;;;;5008317;28;20437;-74
2021/06/04 11:21:36;;;;;;;7.82;7.13;;;;;;;;;;5012753;28;20045;-75
2021/06/04 11:24:13;;;;;;;8.35;7.65;;;;;;;;;;4994671;28;20041;-74
2021/06/04 11:26:45;;;;;;;8.77;7.95;;;;;;;;;;4995166;28;20041;-75
2021/06/04 11:29:12;;;;;;;8.55;7.78;;;;;;;;;;5017232;28;20068;-77
2021/06/04 11:32:17;;;;;;;8.50;7.70;;;;;;;;;;5011565;28;20032;-75
2021/06/04 11:34:55;;;;;;;8.73;7.93;;;;;;;;;;5026708;28;20052;-75
2021/06/04 11:37:21;;;;;;;8.90;8.10;;;;;;;;;;5016222;28;20030;-75
2021/06/04 11:39:48;;;;;;;8.55;7.75;;;;;;;;;;5031909;28;20495;-75
2021/06/04 11:42:17;;;;;;;8.18;6.93;;;;;;;;;;5014471;28;20391;-74
2021/06/04 11:44:54;;;;;;;9.35;8.05;;;;;;;;;;5014284;28;20037;-75
2021/06/04 11:47:19;;;;;;;9.25;8.35;;;;;;;;;;4998078;28;20029;-75
2021/06/04 11:49:57;;;;;;;8.70;7.80;;;;;;;;;;5030712;28;20037;-74
2021/06/04 11:52:47;;;;;;;8.98;8.02;;;;;;;;;;5032094;28;20030;-74
2021/06/04 11:55:22;;;;;;;11.98;8.70;;;;;;;;;;5030190;28;20029;-74
2021/06/04 11:57:59;;;;;;;8.43;7.50;;;;;;;;;;5030324;28;20044;-74
2021/06/04 12:00:41;;;;;;;8.43;7.70;;;;;;;;;;5015170;28;20044;-75
2021/06/04 12:03:09;;;;;;;8.95;8.05;;;;;;;;;;5010476;28;20128;-74
2021/06/04 12:05:40;;;;;;;8.82;8.02;;;;;;;;;;5011944;28;20041;-75
2021/06/04 12:08:14;;;;;;;9.07;8.18;;;;;;;;;;5010577;28;20103;-75
2021/06/04 12:10:46;;;;;;;8.85;7.93;;;;;;;;;;5010757;28;20045;-74
2021/06/04 12:13:51;;;;;;;9.98;8.48;;;;;;;;;;5027396;28;20026;-74
2021/06/04 12:16:29;;;;;;;8.73;7.90;;;;;;;;;;5010998;28;20041;-74
2021/06/04 12:19:01;;;;;;;8.57;7.70;;;;;;;;;;5012368;28;20042;-74
2021/06/04 12:21:41;;;;;;;8.38;7.57;;;;;;;;;;5015909;28;20042;-74
2021/06/04 12:24:20;;;;;;;8.85;8.05;;;;;;;;;;5015856;28;20431;-74
2021/06/04 12:26:53;;;;;;;8.57;7.78;;;;;;;;;;5014660;28;20060;-74
2021/06/04 12:29:22;;;;;;;9.60;8.32;;;;;;;;;;5023087;28;20094;-74
2021/06/04 12:32:07;;;;;;;8.73;7.88;;;;;;;;;;5047537;28;20108;-75
2021/06/04 12:34:36;;;;;;;9.35;8.30;;;;;;;;;;5003542;28;20068;-74
2021/06/04 12:37:11;;;;;;;7.80;7.10;;;;;;;;;;5035436;28;20128;-74
2021/06/04 12:39:41;;;;;;;10.20;8.48;;;;;;;;;;5033805;28;20449;-74
2021/06/04 12:42:11;;;;;;;9.90;8.90;;;;;;;;;;5002111;28;20491;-74
2021/06/04 12:44:37;;;;;;;9.20;8.30;;;;;;;;;;5034059;28;20048;-75
2021/06/04 12:47:05;;;;;;;9.13;7.97;;;;;;;;;;5017437;28;20480;-74
2021/06/04 12:49:30;;;;;;;9.18;8.25;;;;;;;;;;4972676;28;20084;-74
2021/06/04 12:51:56;;;;;;;9.05;7.95;;;;;;;;;;5030801;28;20034;-74
2021/06/04 12:54:26;;;;;;;10.68;8.98;;;;;;;;;;5013651;28;20025;-74
2021/06/04 12:56:54;;;;;;;8.70;7.88;;;;;;;;;;5014290;28;20030;-74
2021/06/04 12:59:22;;;;;;;8.98;8.07;;;;;;;;;;4997601;28;20101;-74
2021/06/04 13:02:13;;;;;;;8.20;7.40;;;;;;;;;;4997563;28;20037;-74
2021/06/04 13:04:43;;;;;;;8.88;7.97;;;;;;;;;;4997819;28;20030;-74
2021/06/04 13:07:17;;;;;;;10.30;9.30;;;;;;;;;;5014210;28;20041;-74
2021/06/04 13:09:43;;;;;;;9.70;8.68;;;;;;;;;;4997687;28;20046;-74
2021/06/04 13:12:18;;;;;;;9.40;8.38;;;;;;;;;;4997599;28;20033;-74
2021/06/04 13:14:46;;;;;;;9.27;8.45;;;;;;;;;;5014486;28;20022;-74
2021/06/04 13:17:25;;;;;;;8.57;7.78;;;;;;;;;;4997821;28;20026;-74
2021/06/04 13:20:08;;;;;;;9.13;8.27;;;;;;;;;;5013854;28;20045;-74
2021/06/04 13:22:34;;;;;;;8.90;8.05;;;;;;;;;;5013682;28;20059;-74
2021/06/04 13:25:21;;;;;;;9.10;8.30;;;;;;;;;;5013398;28;20582;-74
2021/06/04 13:27:47;;;;;;;8.68;7.88;;;;;;;;;;4997892;28;20384;-74
2021/06/04 13:30:14;;;;;;;8.85;7.95;;;;;;;;;;5035695;28;20025;-74
2021/06/04 13:32:48;;;;;;;9.02;8.15;;;;;;;;;;5021322;28;20152;-74
2021/06/04 13:35:35;;;;;;;8.00;7.30;;;;;;;;;;5017606;28;20109;-74
2021/06/04 13:38:12;;;;;;;9.13;8.18;;;;;;;;;;5032715;28;20037;-74
2021/06/04 13:40:39;;;;;;;8.15;7.22;;;;;;;;;;5002043;28;20387;-74
2021/06/04 13:43:27;;;;;;;8.73;7.53;;;;;;;;;;5016658;28;20037;-74
2021/06/04 13:45:53;;;;;;;8.02;7.15;;;;;;;;;;5017530;28;20092;-74
2021/06/04 13:48:27;;;;;;;9.35;7.60;;;;;;;;;;5016591;28;20033;-74
2021/06/04 13:51:04;;;;;;;8.45;7.55;;;;;;;;;;5033111;28;20116;-74
2021/06/04 13:53:39;;;;;;;8.07;7.38;;;;;;;;;;5016812;28;20394;-74
2021/06/04 13:56:09;;;;;;;8.55;7.75;;;;;;;;;;5016691;28;20029;-74
2021/06/04 13:58:34;;;;;;;9.52;7.68;;;;;;;;;;5032705;28;20072;-74
2021/06/04 14:01:17;;;;;;;7.68;6.50;;;;;;;;;;4999932;28;20056;-74
2021/06/04 14:03:49;;;;;;;7.60;6.78;;;;;;;;;;5033422;28;20072;-74
2021/06/04 14:06:34;;;;;;;7.80;7.10;;;;;;;;;;5032371;28;20548;-74
2021/06/04 14:09:00;;;;;;;8.32;7.55;;;;;;;;;;5000783;28;20064;-75
2021/06/04 14:11:26;;;;;;;8.80;6.57;;;;;;;;;;5016111;28;20431;-74
2021/06/04 14:13:51;;;;;;;6.90;6.20;;;;;;;;;;5016009;28;20136;-74
2021/06/04 14:16:44;;;;;;;8.10;6.97;;;;;;;;;;5033729;28;20434;-74
2021/06/04 14:19:28;;;;;;;7.35;6.47;;;;;;;;;;5032629;28;20033;-74
2021/06/04 14:21:54;;;;;;;6.43;5.65;;;;;;;;;;5016161;28;20480;-74
2021/06/04 14:24:23;;;;;;;6.45;5.85;;;;;;;;;;5016051;28;20033;-74
2021/06/04 14:26:59;;;;;;;5.80;5.20;;;;;;;;;;5033729;28;20033;-74
2021/06/04 14:29:40;;;;;;;6.13;5.35;;;;;;;;;;5028528;28;20041;-74
2021/06/04 14:32:05;;;;;;;6.53;5.20;;;;;;;;;;5025757;28;20064;-74
2021/06/04 14:34:34;;;;;;;6.53;5.68;;;;;;;;;;5032156;28;20083;-74
2021/06/04 14:37:01;;;;;;;5.80;4.68;;;;;;;;;;5015749;28;20022;-74
2021/06/04 14:39:32;;;;;;;5.65;4.65;;;;;;;;;;5015769;28;20179;-74
2021/06/04 14:41:58;;;;;;;7.13;4.78;;;;;;;;;;5015426;28;20029;-74
2021/06/04 14:44:24;;;;;;;8.13;4.97;;;;;;;;;;5015241;28;20120;-74
2021/06/04 14:46:51;;;;;;;5.28;4.50;;;;;;;;;;5015229;28;20079;-74
2021/06/04 14:49:17;;;;;;;4.68;4.18;;;;;;;;;;4996144;28;20053;-74
2021/06/04 14:51:42;;;;;;;4.55;4.00;;;;;;;;;;5011994;28;20030;-74
2021/06/04 14:54:09;;;;;;;5.00;4.45;;;;;;;;;;5012002;28;20030;-74
2021/06/04 14:56:34;;;;;;;5.85;3.83;;;;;;;;;;5011891;28;20026;-74
2021/06/04 14:59:00;;;;;;;5.10;4.13;;;;;;;;;;5011784;28;20034;-74
2021/06/04 15:01:25;;;;;;;5.82;3.75;;;;;;;;;;5011585;28;20030;-75
2021/06/04 15:03:54;;;;;;;5.13;3.83;;;;;;;;;;5011294;28;20444;-74
2021/06/04 15:06:20;;;;;;;3.95;3.55;;;;;;;;;;4996237;28;20481;-74
2021/06/04 15:08:46;;;;;;;3.80;3.15;;;;;;;;;;4995248;28;20124;-74